»·PEaware :: N642SP KBUR-KSBA

N642SP :: KBUR-KSBA

FLIGHT INFORMATION

Flight Status: Arrived
Operator: Privately registered:
United States
More flights under this callsign
Pilot: Wes T. (5776)
Aircraft: CESSNA 172 SKYHAWK
(C172)
More flights by this aircraft type
Origin: KBUR Bob Hope-Burbank
United States
Destination: KSBA Santa Barbara Mun
United States
More flights between these airports :: More routes between these airports
Route: +VNY3 FIM V186 DEANO V27 KWANG
File this flight plan on PilotEdge
Remarks:
Altitude:
(Current/Filed)
8,000ft
Speed:
(Current/Filed)
109kts
Departed: 22-Dec-17 06:13 PM
Arrived: 22-Dec-17 06:58 PM
Distance/Time
Traveled:
74nm/0:45
Distance/Time
To Go:
Arrived

Flight Plot

Page will automatically refresh every two minutes.

Flight plan parsing failed; only flown route is shown


Map Options




Map Legend


Flown Route
Filed Route
Departure Airport
Arrival Airport
Navaid (VOR, NDB)
Fix

Horizontal Profiles

Position Reports

Time Latitude Longitude Heading Altitude Ground
Speed
22-Dec-17 17:49 34.195980 -118.366639 180 781ft 0kts
22-Dec-17 17:50 34.195980 -118.366639 180 781ft 0kts
22-Dec-17 17:51 34.195977 -118.366639 180 781ft 0kts
22-Dec-17 17:52 34.195970 -118.366639 180 781ft 0kts
22-Dec-17 17:53 34.195966 -118.366639 180 781ft 0kts
22-Dec-17 17:54 34.195962 -118.366639 180 781ft 0kts
22-Dec-17 17:55 34.195958 -118.366639 180 781ft 0kts
22-Dec-17 17:56 34.195954 -118.366639 180 781ft 0kts
22-Dec-17 17:57 34.195950 -118.366639 180 781ft 0kts
22-Dec-17 17:58 34.195946 -118.366639 180 781ft 0kts
22-Dec-17 17:59 34.195941 -118.366639 180 781ft 0kts
22-Dec-17 18:00 34.195937 -118.366639 180 781ft 0kts
22-Dec-17 18:01 34.195933 -118.366639 180 781ft 0kts
22-Dec-17 18:02 34.195929 -118.366639 180 781ft 0kts
22-Dec-17 18:03 34.195925 -118.366640 180 781ft 0kts
22-Dec-17 18:04 34.195920 -118.366640 180 781ft 0kts
22-Dec-17 18:05 34.195916 -118.366640 180 781ft 0kts
22-Dec-17 18:06 34.195912 -118.366640 180 781ft 0kts
22-Dec-17 18:07 34.195908 -118.366640 180 781ft 0kts
22-Dec-17 18:08 34.195904 -118.366640 180 781ft 0kts
22-Dec-17 18:09 34.195899 -118.366640 180 781ft 0kts
22-Dec-17 18:10 34.195895 -118.366640 180 781ft 0kts
22-Dec-17 18:11 34.195891 -118.366640 180 781ft 0kts
22-Dec-17 18:12 34.195887 -118.366640 180 781ft 0kts
22-Dec-17 18:13 34.196736 -118.366522 275 781ft 13kts
22-Dec-17 18:14 34.196749 -118.368894 62 781ft 0kts
22-Dec-17 18:15 34.196751 -118.368889 62 781ft 0kts
22-Dec-17 18:16 34.196753 -118.368885 62 781ft 0kts
22-Dec-17 18:17 34.196897 -118.368869 330 781ft 8kts
22-Dec-17 18:18 34.197238 -118.368959 358 781ft 3kts
22-Dec-17 18:19 34.197849 -118.363265 88 809ft 69kts
22-Dec-17 18:20 34.190249 -118.342250 181 1589ft 77kts
22-Dec-17 18:21 34.172792 -118.361344 225 2420ft 103kts
22-Dec-17 18:22 34.151867 -118.385970 225 3276ft 108kts
22-Dec-17 18:23 34.149794 -118.415014 293 4159ft 89kts
22-Dec-17 18:24 34.160780 -118.440782 297 4994ft 85kts
22-Dec-17 18:25 34.172036 -118.465934 298 5705ft 87kts
22-Dec-17 18:26 34.186430 -118.498011 298 6000ft 123kts
22-Dec-17 18:27 34.202615 -118.534187 298 6028ft 124kts
22-Dec-17 18:28 34.211147 -118.577466 275 5984ft 132kts
22-Dec-17 18:29 34.215348 -118.619797 277 6018ft 125kts
22-Dec-17 18:30 34.220085 -118.663535 277 6012ft 129kts
22-Dec-17 18:31 34.224807 -118.706968 277 6003ft 126kts
22-Dec-17 18:32 34.229257 -118.747972 277 6022ft 122kts
22-Dec-17 18:33 34.233819 -118.790210 277 5996ft 123kts
22-Dec-17 18:34 34.237951 -118.828509 277 6014ft 113kts
22-Dec-17 18:35 34.242060 -118.866764 277 6012ft 117kts
22-Dec-17 18:36 34.246409 -118.907355 277 6008ft 121kts
22-Dec-17 18:37 34.250618 -118.946766 277 6025ft 120kts
22-Dec-17 18:38 34.255287 -118.990746 277 5979ft 128kts
22-Dec-17 18:39 34.259507 -119.030418 277 5998ft 114kts
22-Dec-17 18:40 34.263519 -119.068328 277 5999ft 113kts
22-Dec-17 18:41 34.267515 -119.106217 277 6002ft 113kts
22-Dec-17 18:42 34.271493 -119.144050 277 6033ft 118kts
22-Dec-17 18:43 34.276062 -119.187824 277 5981ft 127kts
22-Dec-17 18:44 34.280149 -119.226816 277 6024ft 116kts
22-Dec-17 18:45 34.284478 -119.268439 277 6020ft 127kts
22-Dec-17 18:46 34.288983 -119.311934 277 6017ft 129kts
22-Dec-17 18:47 34.293456 -119.356464 274 5706ft 129kts
22-Dec-17 18:48 34.296710 -119.397435 277 5219ft 124kts
22-Dec-17 18:49 34.301123 -119.439188 278 4572ft 117kts
22-Dec-17 18:50 34.305103 -119.476295 278 3857ft 109kts
22-Dec-17 18:51 34.308984 -119.512544 278 3157ft 108kts
22-Dec-17 18:52 34.320064 -119.542418 296 2942ft 91kts
22-Dec-17 18:53 34.331224 -119.571043 295 2706ft 97kts
22-Dec-17 18:54 34.342865 -119.601041 295 2417ft 99kts
22-Dec-17 18:55 34.354619 -119.631353 294 2127ft 99kts
22-Dec-17 18:56 34.365345 -119.659024 295 2107ft 86kts
22-Dec-17 18:57 34.375321 -119.684770 295 2109ft 83kts
22-Dec-17 18:58 34.386679 -119.709082 329 2105ft 87kts
22-Dec-17 18:59 34.399564 -119.734570 296 1883ft 95kts
22-Dec-17 19:00 34.411956 -119.760225 302 1556ft 84kts
22-Dec-17 19:01 34.422091 -119.785114 289 1245ft 78kts
22-Dec-17 19:02 34.427929 -119.805453 280 884ft 67kts
22-Dec-17 19:03 34.428094 -119.826658 270 259ft 60kts
22-Dec-17 19:04 34.428066 -119.838101 17 13ft 5kts
22-Dec-17 19:05 34.428715 -119.838182 345 13ft 6kts
22-Dec-17 19:06 34.431249 -119.838247 70 13ft 13kts
22-Dec-17 19:07 34.432864 -119.834720 338 13ft 8kts
22-Dec-17 19:08 34.432993 -119.834778 341 13ft 0kts

Navigation Log

Ident Type
Flight plan parsing failed, navigation log unavailable